sensor_id;sensor_type;location;lat;lon;timestamp;P1;durP1;ratioP1;P2;durP2;ratioP2
11596;SDS011;5854;48.072;16.286;2023-04-25T00:00:27;1.20;;;1.10;;
11596;SDS011;5854;48.072;16.286;2023-04-25T00:02:54;1.98;;;1.42;;
11596;SDS011;5854;48.072;16.286;2023-04-25T00:05:23;2.05;;;1.08;;
11596;SDS011;5854;48.072;16.286;2023-04-25T00:07:50;0.88;;;0.88;;
11596;SDS011;5854;48.072;16.286;2023-04-25T00:10:18;6.40;;;1.60;;
11596;SDS011;5854;48.072;16.286;2023-04-25T00:12:46;1.33;;;1.23;;
11596;SDS011;5854;48.072;16.286;2023-04-25T00:15:14;3.92;;;1.23;;
11596;SDS011;5854;48.072;16.286;2023-04-25T00:17:41;1.58;;;1.48;;
11596;SDS011;5854;48.072;16.286;2023-04-25T00:20:08;1.98;;;1.40;;
11596;SDS011;5854;48.072;16.286;2023-04-25T00:22:38;1.30;;;1.20;;
11596;SDS011;5854;48.072;16.286;2023-04-25T00:25:06;1.60;;;1.13;;
11596;SDS011;5854;48.072;16.286;2023-04-25T00:27:33;1.67;;;1.40;;
11596;SDS011;5854;48.072;16.286;2023-04-25T00:30:00;4.20;;;1.40;;
11596;SDS011;5854;48.072;16.286;2023-04-25T00:32:28;2.17;;;2.08;;
11596;SDS011;5854;48.072;16.286;2023-04-25T00:34:55;1.30;;;1.20;;
11596;SDS011;5854;48.072;16.286;2023-04-25T00:37:23;3.05;;;1.65;;
11596;SDS011;5854;48.072;16.286;2023-04-25T00:39:51;3.63;;;1.20;;
11596;SDS011;5854;48.072;16.286;2023-04-25T00:42:20;2.53;;;1.48;;
11596;SDS011;5854;48.072;16.286;2023-04-25T00:44:48;2.05;;;1.95;;
11596;SDS011;5854;48.072;16.286;2023-04-25T00:47:16;1.90;;;1.70;;
11596;SDS011;5854;48.072;16.286;2023-04-25T00:49:44;1.65;;;1.42;;
11596;SDS011;5854;48.072;16.286;2023-04-25T00:52:11;1.63;;;1.50;;
11596;SDS011;5854;48.072;16.286;2023-04-25T00:54:38;4.40;;;1.92;;
11596;SDS011;5854;48.072;16.286;2023-04-25T00:57:07;2.10;;;1.92;;
11596;SDS011;5854;48.072;16.286;2023-04-25T00:59:35;1.38;;;1.20;;
11596;SDS011;5854;48.072;16.286;2023-04-25T01:02:04;9.27;;;1.77;;
11596;SDS011;5854;48.072;16.286;2023-04-25T01:04:32;3.75;;;1.73;;
11596;SDS011;5854;48.072;16.286;2023-04-25T01:06:59;2.08;;;1.75;;
11596;SDS011;5854;48.072;16.286;2023-04-25T01:09:27;1.35;;;1.25;;
11596;SDS011;5854;48.072;16.286;2023-04-25T01:11:57;1.48;;;1.38;;
11596;SDS011;5854;48.072;16.286;2023-04-25T01:14:26;2.42;;;1.80;;
11596;SDS011;5854;48.072;16.286;2023-04-25T01:16:54;1.35;;;1.25;;
11596;SDS011;5854;48.072;16.286;2023-04-25T01:19:21;1.20;;;1.10;;
11596;SDS011;5854;48.072;16.286;2023-04-25T01:21:50;3.85;;;0.80;;
11596;SDS011;5854;48.072;16.286;2023-04-25T01:24:17;1.52;;;1.42;;
11596;SDS011;5854;48.072;16.286;2023-04-25T01:26:44;1.92;;;1.73;;
11596;SDS011;5854;48.072;16.286;2023-04-25T01:29:14;1.38;;;1.23;;
11596;SDS011;5854;48.072;16.286;2023-04-25T01:31:42;3.55;;;1.50;;
11596;SDS011;5854;48.072;16.286;2023-04-25T01:34:10;1.58;;;1.48;;
11596;SDS011;5854;48.072;16.286;2023-04-25T01:36:37;2.72;;;2.05;;
11596;SDS011;5854;48.072;16.286;2023-04-25T01:39:06;2.50;;;2.30;;
11596;SDS011;5854;48.072;16.286;2023-04-25T01:41:34;2.47;;;1.50;;
11596;SDS011;5854;48.072;16.286;2023-04-25T01:44:01;2.22;;;1.95;;
11596;SDS011;5854;48.072;16.286;2023-04-25T01:46:29;2.00;;;1.90;;
11596;SDS011;5854;48.072;16.286;2023-04-25T01:48:57;1.60;;;1.50;;
11596;SDS011;5854;48.072;16.286;2023-04-25T01:51:24;3.33;;;2.05;;
11596;SDS011;5854;48.072;16.286;2023-04-25T01:53:51;2.08;;;1.85;;
11596;SDS011;5854;48.072;16.286;2023-04-25T01:56:20;2.22;;;1.75;;
11596;SDS011;5854;48.072;16.286;2023-04-25T01:58:47;2.63;;;2.03;;
11596;SDS011;5854;48.072;16.286;2023-04-25T02:01:14;4.85;;;2.05;;
11596;SDS011;5854;48.072;16.286;2023-04-25T02:03:41;3.55;;;1.90;;
11596;SDS011;5854;48.072;16.286;2023-04-25T02:06:09;3.10;;;1.90;;
11596;SDS011;5854;48.072;16.286;2023-04-25T02:08:36;1.63;;;1.52;;
11596;SDS011;5854;48.072;16.286;2023-04-25T02:11:03;1.90;;;1.65;;
11596;SDS011;5854;48.072;16.286;2023-04-25T02:13:31;2.33;;;1.75;;
11596;SDS011;5854;48.072;16.286;2023-04-25T02:15:58;2.75;;;1.70;;
11596;SDS011;5854;48.072;16.286;2023-04-25T02:18:25;5.15;;;1.83;;
11596;SDS011;5854;48.072;16.286;2023-04-25T02:20:53;3.20;;;1.83;;
11596;SDS011;5854;48.072;16.286;2023-04-25T02:23:20;1.77;;;1.67;;
11596;SDS011;5854;48.072;16.286;2023-04-25T02:25:47;4.43;;;1.75;;
11596;SDS011;5854;48.072;16.286;2023-04-25T02:28:15;1.70;;;1.60;;
11596;SDS011;5854;48.072;16.286;2023-04-25T02:30:43;6.57;;;1.80;;
11596;SDS011;5854;48.072;16.286;2023-04-25T02:33:11;2.40;;;2.10;;
11596;SDS011;5854;48.072;16.286;2023-04-25T02:35:38;2.20;;;1.77;;
11596;SDS011;5854;48.072;16.286;2023-04-25T02:38:05;2.13;;;1.92;;
11596;SDS011;5854;48.072;16.286;2023-04-25T02:40:32;1.73;;;1.63;;
11596;SDS011;5854;48.072;16.286;2023-04-25T02:42:59;1.70;;;1.60;;
11596;SDS011;5854;48.072;16.286;2023-04-25T02:45:26;4.82;;;1.90;;
11596;SDS011;5854;48.072;16.286;2023-04-25T02:47:54;1.98;;;1.73;;
11596;SDS011;5854;48.072;16.286;2023-04-25T02:50:22;2.25;;;1.85;;
11596;SDS011;5854;48.072;16.286;2023-04-25T02:52:49;2.58;;;1.52;;
11596;SDS011;5854;48.072;16.286;2023-04-25T02:55:16;1.92;;;1.45;;
11596;SDS011;5854;48.072;16.286;2023-04-25T02:57:43;3.25;;;1.75;;
11596;SDS011;5854;48.072;16.286;2023-04-25T03:00:11;2.17;;;1.73;;
11596;SDS011;5854;48.072;16.286;2023-04-25T03:02:40;2.20;;;2.10;;
11596;SDS011;5854;48.072;16.286;2023-04-25T03:05:08;3.63;;;1.95;;
11596;SDS011;5854;48.072;16.286;2023-04-25T03:07:35;1.75;;;1.63;;
11596;SDS011;5854;48.072;16.286;2023-04-25T03:10:04;1.85;;;1.70;;
11596;SDS011;5854;48.072;16.286;2023-04-25T03:12:33;6.60;;;2.10;;
11596;SDS011;5854;48.072;16.286;2023-04-25T03:15:00;1.98;;;1.60;;
11596;SDS011;5854;48.072;16.286;2023-04-25T03:17:27;2.08;;;1.88;;
11596;SDS011;5854;48.072;16.286;2023-04-25T03:19:54;3.55;;;2.10;;
11596;SDS011;5854;48.072;16.286;2023-04-25T03:22:23;2.85;;;2.15;;
11596;SDS011;5854;48.072;16.286;2023-04-25T03:24:50;1.98;;;1.65;;
11596;SDS011;5854;48.072;16.286;2023-04-25T03:27:17;3.50;;;2.83;;
11596;SDS011;5854;48.072;16.286;2023-04-25T03:29:44;2.75;;;2.55;;
11596;SDS011;5854;48.072;16.286;2023-04-25T03:32:11;6.97;;;1.85;;
11596;SDS011;5854;48.072;16.286;2023-04-25T03:34:38;2.35;;;2.10;;
11596;SDS011;5854;48.072;16.286;2023-04-25T03:37:05;3.08;;;2.10;;
11596;SDS011;5854;48.072;16.286;2023-04-25T03:39:34;2.42;;;1.80;;
11596;SDS011;5854;48.072;16.286;2023-04-25T03:42:01;1.77;;;1.60;;
11596;SDS011;5854;48.072;16.286;2023-04-25T03:44:28;1.85;;;1.75;;
11596;SDS011;5854;48.072;16.286;2023-04-25T03:46:56;2.63;;;1.70;;
11596;SDS011;5854;48.072;16.286;2023-04-25T03:49:23;1.95;;;1.85;;
11596;SDS011;5854;48.072;16.286;2023-04-25T03:51:50;1.92;;;1.75;;
11596;SDS011;5854;48.072;16.286;2023-04-25T03:54:17;2.20;;;2.00;;
11596;SDS011;5854;48.072;16.286;2023-04-25T03:56:46;1.77;;;1.67;;
11596;SDS011;5854;48.072;16.286;2023-04-25T03:59:13;4.25;;;2.80;;
11596;SDS011;5854;48.072;16.286;2023-04-25T04:01:41;4.40;;;2.28;;
11596;SDS011;5854;48.072;16.286;2023-04-25T04:04:08;5.68;;;4.65;;
11596;SDS011;5854;48.072;16.286;2023-04-25T04:06:35;2.38;;;2.17;;
11596;SDS011;5854;48.072;16.286;2023-04-25T04:09:03;4.97;;;1.95;;
11596;SDS011;5854;48.072;16.286;2023-04-25T04:11:31;2.70;;;2.35;;
11596;SDS011;5854;48.072;16.286;2023-04-25T04:13:59;2.13;;;1.90;;
11596;SDS011;5854;48.072;16.286;2023-04-25T04:16:26;1.83;;;1.73;;
11596;SDS011;5854;48.072;16.286;2023-04-25T04:18:53;1.83;;;1.73;;
11596;SDS011;5854;48.072;16.286;2023-04-25T04:21:22;3.22;;;2.13;;
11596;SDS011;5854;48.072;16.286;2023-04-25T04:23:49;2.42;;;2.20;;
11596;SDS011;5854;48.072;16.286;2023-04-25T04:26:16;2.47;;;2.25;;
11596;SDS011;5854;48.072;16.286;2023-04-25T04:28:48;2.45;;;2.10;;
11596;SDS011;5854;48.072;16.286;2023-04-25T04:31:18;1.70;;;1.60;;
11596;SDS011;5854;48.072;16.286;2023-04-25T04:33:45;4.45;;;2.55;;
11596;SDS011;5854;48.072;16.286;2023-04-25T04:36:12;3.17;;;2.88;;
11596;SDS011;5854;48.072;16.286;2023-04-25T04:38:40;2.42;;;2.22;;
11596;SDS011;5854;48.072;16.286;2023-04-25T04:41:11;2.15;;;2.03;;
11596;SDS011;5854;48.072;16.286;2023-04-25T04:43:43;2.25;;;1.98;;
11596;SDS011;5854;48.072;16.286;2023-04-25T04:46:11;2.72;;;2.30;;
11596;SDS011;5854;48.072;16.286;2023-04-25T04:48:48;2.28;;;2.17;;
11596;SDS011;5854;48.072;16.286;2023-04-25T04:51:22;1.95;;;1.83;;
11596;SDS011;5854;48.072;16.286;2023-04-25T04:53:49;3.17;;;2.17;;
11596;SDS011;5854;48.072;16.286;2023-04-25T04:56:17;4.65;;;2.50;;
11596;SDS011;5854;48.072;16.286;2023-04-25T04:58:48;2.90;;;2.20;;
11596;SDS011;5854;48.072;16.286;2023-04-25T05:01:15;2.38;;;2.17;;
11596;SDS011;5854;48.072;16.286;2023-04-25T05:03:45;2.97;;;2.67;;
11596;SDS011;5854;48.072;16.286;2023-04-25T05:06:12;2.28;;;2.08;;
11596;SDS011;5854;48.072;16.286;2023-04-25T05:08:40;2.70;;;2.50;;
11596;SDS011;5854;48.072;16.286;2023-04-25T05:11:07;2.55;;;2.35;;
11596;SDS011;5854;48.072;16.286;2023-04-25T05:13:36;2.55;;;2.40;;
11596;SDS011;5854;48.072;16.286;2023-04-25T05:16:03;3.58;;;2.47;;
11596;SDS011;5854;48.072;16.286;2023-04-25T05:18:30;2.70;;;2.50;;
11596;SDS011;5854;48.072;16.286;2023-04-25T05:20:59;2.70;;;2.60;;
11596;SDS011;5854;48.072;16.286;2023-04-25T05:23:26;2.45;;;2.00;;
11596;SDS011;5854;48.072;16.286;2023-04-25T05:25:55;2.85;;;2.45;;
11596;SDS011;5854;48.072;16.286;2023-04-25T05:28:22;4.25;;;2.25;;
11596;SDS011;5854;48.072;16.286;2023-04-25T05:30:52;2.20;;;1.98;;
11596;SDS011;5854;48.072;16.286;2023-04-25T05:35:48;2.75;;;2.10;;
11596;SDS011;5854;48.072;16.286;2023-04-25T05:38:20;1.60;;;1.50;;
11596;SDS011;5854;48.072;16.286;2023-04-25T05:40:47;7.05;;;2.53;;
11596;SDS011;5854;48.072;16.286;2023-04-25T05:43:14;2.30;;;2.13;;
11596;SDS011;5854;48.072;16.286;2023-04-25T05:45:41;4.20;;;2.97;;
11596;SDS011;5854;48.072;16.286;2023-04-25T05:48:09;4.20;;;1.60;;
11596;SDS011;5854;48.072;16.286;2023-04-25T05:50:36;2.40;;;2.08;;
11596;SDS011;5854;48.072;16.286;2023-04-25T05:53:06;3.78;;;2.20;;
11596;SDS011;5854;48.072;16.286;2023-04-25T05:55:41;3.80;;;2.00;;
11596;SDS011;5854;48.072;16.286;2023-04-25T05:58:09;3.30;;;2.25;;
11596;SDS011;5854;48.072;16.286;2023-04-25T06:00:36;1.80;;;1.67;;
11596;SDS011;5854;48.072;16.286;2023-04-25T06:03:03;2.28;;;1.70;;
11596;SDS011;5854;48.072;16.286;2023-04-25T06:05:32;2.83;;;1.80;;
11596;SDS011;5854;48.072;16.286;2023-04-25T06:07:59;2.25;;;1.75;;
11596;SDS011;5854;48.072;16.286;2023-04-25T06:10:27;3.08;;;1.92;;
11596;SDS011;5854;48.072;16.286;2023-04-25T06:12:55;2.03;;;1.92;;
11596;SDS011;5854;48.072;16.286;2023-04-25T06:15:22;1.70;;;1.50;;
11596;SDS011;5854;48.072;16.286;2023-04-25T06:17:50;2.28;;;1.52;;
11596;SDS011;5854;48.072;16.286;2023-04-25T06:20:17;1.73;;;1.63;;
11596;SDS011;5854;48.072;16.286;2023-04-25T06:22:48;1.63;;;1.52;;
11596;SDS011;5854;48.072;16.286;2023-04-25T06:25:16;1.70;;;1.60;;
11596;SDS011;5854;48.072;16.286;2023-04-25T06:27:44;2.10;;;1.63;;
11596;SDS011;5854;48.072;16.286;2023-04-25T06:30:13;2.00;;;1.90;;
11596;SDS011;5854;48.072;16.286;2023-04-25T06:32:41;1.95;;;1.85;;
11596;SDS011;5854;48.072;16.286;2023-04-25T06:35:08;6.90;;;1.33;;
11596;SDS011;5854;48.072;16.286;2023-04-25T06:37:36;2.28;;;1.67;;
11596;SDS011;5854;48.072;16.286;2023-04-25T06:40:04;2.90;;;1.60;;
11596;SDS011;5854;48.072;16.286;2023-04-25T06:42:32;2.42;;;1.52;;
11596;SDS011;5854;48.072;16.286;2023-04-25T06:45:00;1.92;;;1.73;;
11596;SDS011;5854;48.072;16.286;2023-04-25T06:47:28;2.55;;;1.80;;
11596;SDS011;5854;48.072;16.286;2023-04-25T06:49:56;3.15;;;1.70;;
11596;SDS011;5854;48.072;16.286;2023-04-25T06:52:23;4.40;;;2.15;;
11596;SDS011;5854;48.072;16.286;2023-04-25T06:54:50;4.95;;;1.92;;
11596;SDS011;5854;48.072;16.286;2023-04-25T06:57:18;2.25;;;1.42;;
11596;SDS011;5854;48.072;16.286;2023-04-25T06:59:45;1.95;;;1.40;;
11596;SDS011;5854;48.072;16.286;2023-04-25T07:02:12;3.25;;;1.88;;
11596;SDS011;5854;48.072;16.286;2023-04-25T07:04:41;3.00;;;1.30;;
11596;SDS011;5854;48.072;16.286;2023-04-25T07:07:08;1.40;;;1.30;;
11596;SDS011;5854;48.072;16.286;2023-04-25T07:09:35;2.53;;;1.20;;
11596;SDS011;5854;48.072;16.286;2023-04-25T07:12:03;1.77;;;1.67;;
11596;SDS011;5854;48.072;16.286;2023-04-25T07:14:31;1.67;;;1.35;;
11596;SDS011;5854;48.072;16.286;2023-04-25T07:16:58;2.22;;;1.55;;
11596;SDS011;5854;48.072;16.286;2023-04-25T07:19:25;1.63;;;1.50;;
11596;SDS011;5854;48.072;16.286;2023-04-25T07:21:56;2.25;;;1.17;;
11596;SDS011;5854;48.072;16.286;2023-04-25T07:24:23;1.10;;;1.00;;
11596;SDS011;5854;48.072;16.286;2023-04-25T07:26:51;1.77;;;1.25;;
11596;SDS011;5854;48.072;16.286;2023-04-25T07:29:18;1.73;;;1.48;;
11596;SDS011;5854;48.072;16.286;2023-04-25T07:31:46;3.83;;;1.20;;
11596;SDS011;5854;48.072;16.286;2023-04-25T07:34:13;1.52;;;1.33;;
11596;SDS011;5854;48.072;16.286;2023-04-25T07:36:41;0.90;;;0.90;;
11596;SDS011;5854;48.072;16.286;2023-04-25T07:39:11;1.20;;;1.10;;
11596;SDS011;5854;48.072;16.286;2023-04-25T07:41:38;1.10;;;1.05;;
11596;SDS011;5854;48.072;16.286;2023-04-25T07:44:06;1.67;;;1.00;;
11596;SDS011;5854;48.072;16.286;2023-04-25T07:46:33;1.30;;;1.00;;
11596;SDS011;5854;48.072;16.286;2023-04-25T07:49:01;1.20;;;1.08;;
11596;SDS011;5854;48.072;16.286;2023-04-25T07:51:28;1.65;;;1.23;;
11596;SDS011;5854;48.072;16.286;2023-04-25T07:53:56;0.90;;;0.90;;
11596;SDS011;5854;48.072;16.286;2023-04-25T07:56:26;4.95;;;1.40;;
11596;SDS011;5854;48.072;16.286;2023-04-25T07:58:53;1.63;;;1.23;;
11596;SDS011;5854;48.072;16.286;2023-04-25T08:01:21;1.48;;;1.20;;
11596;SDS011;5854;48.072;16.286;2023-04-25T08:03:49;0.85;;;0.85;;
11596;SDS011;5854;48.072;16.286;2023-04-25T08:06:16;2.60;;;1.38;;
11596;SDS011;5854;48.072;16.286;2023-04-25T08:08:44;1.30;;;1.20;;
11596;SDS011;5854;48.072;16.286;2023-04-25T08:11:12;1.50;;;1.20;;
11596;SDS011;5854;48.072;16.286;2023-04-25T08:13:41;4.85;;;1.75;;
11596;SDS011;5854;48.072;16.286;2023-04-25T08:16:08;2.22;;;1.20;;
11596;SDS011;5854;48.072;16.286;2023-04-25T08:18:37;2.65;;;1.52;;
11596;SDS011;5854;48.072;16.286;2023-04-25T08:21:04;1.77;;;1.52;;
11596;SDS011;5854;48.072;16.286;2023-04-25T08:23:34;2.20;;;1.60;;
11596;SDS011;5854;48.072;16.286;2023-04-25T08:26:01;3.50;;;2.10;;
11596;SDS011;5854;48.072;16.286;2023-04-25T08:28:29;3.13;;;1.35;;
11596;SDS011;5854;48.072;16.286;2023-04-25T08:30:59;1.60;;;1.48;;
11596;SDS011;5854;48.072;16.286;2023-04-25T08:33:27;2.92;;;1.60;;
11596;SDS011;5854;48.072;16.286;2023-04-25T08:35:55;1.63;;;1.13;;
11596;SDS011;5854;48.072;16.286;2023-04-25T08:38:23;8.77;;;1.45;;
11596;SDS011;5854;48.072;16.286;2023-04-25T08:40:51;1.50;;;1.33;;
11596;SDS011;5854;48.072;16.286;2023-04-25T08:43:19;1.58;;;1.48;;
11596;SDS011;5854;48.072;16.286;2023-04-25T08:45:47;2.38;;;1.23;;
11596;SDS011;5854;48.072;16.286;2023-04-25T08:48:16;1.27;;;1.00;;
11596;SDS011;5854;48.072;16.286;2023-04-25T08:50:45;1.13;;;1.08;;
11596;SDS011;5854;48.072;16.286;2023-04-25T08:53:17;1.67;;;1.23;;
11596;SDS011;5854;48.072;16.286;2023-04-25T08:55:52;1.92;;;1.30;;
11596;SDS011;5854;48.072;16.286;2023-04-25T08:58:21;1.92;;;1.65;;
11596;SDS011;5854;48.072;16.286;2023-04-25T09:00:49;1.40;;;1.20;;
11596;SDS011;5854;48.072;16.286;2023-04-25T09:03:19;1.58;;;0.95;;
11596;SDS011;5854;48.072;16.286;2023-04-25T09:05:47;1.60;;;1.50;;
11596;SDS011;5854;48.072;16.286;2023-04-25T09:08:15;1.40;;;1.30;;
11596;SDS011;5854;48.072;16.286;2023-04-25T09:10:42;3.60;;;1.30;;
11596;SDS011;5854;48.072;16.286;2023-04-25T09:13:10;1.42;;;1.30;;
11596;SDS011;5854;48.072;16.286;2023-04-25T09:15:46;2.30;;;1.23;;
11596;SDS011;5854;48.072;16.286;2023-04-25T09:18:23;1.40;;;1.17;;
11596;SDS011;5854;48.072;16.286;2023-04-25T09:20:53;3.65;;;1.30;;
11596;SDS011;5854;48.072;16.286;2023-04-25T09:23:23;2.00;;;0.90;;
11596;SDS011;5854;48.072;16.286;2023-04-25T09:25:51;1.00;;;0.85;;
11596;SDS011;5854;48.072;16.286;2023-04-25T09:28:22;1.00;;;0.80;;
11596;SDS011;5854;48.072;16.286;2023-04-25T09:30:54;5.53;;;0.70;;
11596;SDS011;5854;48.072;16.286;2023-04-25T09:33:28;2.23;;;0.70;;
11596;SDS011;5854;48.072;16.286;2023-04-25T09:36:01;1.48;;;0.93;;
11596;SDS011;5854;48.072;16.286;2023-04-25T09:38:31;2.33;;;0.88;;
11596;SDS011;5854;48.072;16.286;2023-04-25T09:41:00;1.10;;;1.00;;
11596;SDS011;5854;48.072;16.286;2023-04-25T09:43:27;2.78;;;1.10;;
11596;SDS011;5854;48.072;16.286;2023-04-25T09:45:55;1.38;;;1.27;;
11596;SDS011;5854;48.072;16.286;2023-04-25T09:48:24;2.17;;;1.20;;
11596;SDS011;5854;48.072;16.286;2023-04-25T09:51:04;1.10;;;1.00;;
11596;SDS011;5854;48.072;16.286;2023-04-25T09:53:33;1.80;;;1.00;;
11596;SDS011;5854;48.072;16.286;2023-04-25T09:56:03;2.55;;;1.10;;
11596;SDS011;5854;48.072;16.286;2023-04-25T09:58:32;1.52;;;1.10;;
11596;SDS011;5854;48.072;16.286;2023-04-25T10:01:01;2.55;;;1.00;;
11596;SDS011;5854;48.072;16.286;2023-04-25T10:03:33;1.08;;;1.05;;
11596;SDS011;5854;48.072;16.286;2023-04-25T10:06:02;3.13;;;1.65;;
11596;SDS011;5854;48.072;16.286;2023-04-25T10:08:35;2.25;;;1.92;;
11596;SDS011;5854;48.072;16.286;2023-04-25T10:11:04;3.03;;;1.58;;
11596;SDS011;5854;48.072;16.286;2023-04-25T10:13:35;3.13;;;1.50;;
11596;SDS011;5854;48.072;16.286;2023-04-25T10:16:03;1.67;;;1.38;;
11596;SDS011;5854;48.072;16.286;2023-04-25T10:18:33;3.22;;;1.10;;
11596;SDS011;5854;48.072;16.286;2023-04-25T10:21:01;1.52;;;0.98;;
11596;SDS011;5854;48.072;16.286;2023-04-25T10:23:31;1.83;;;1.00;;
11596;SDS011;5854;48.072;16.286;2023-04-25T10:25:59;4.88;;;1.15;;
11596;SDS011;5854;48.072;16.286;2023-04-25T10:28:27;2.45;;;1.40;;
11596;SDS011;5854;48.072;16.286;2023-04-25T10:30:57;1.10;;;1.10;;
11596;SDS011;5854;48.072;16.286;2023-04-25T10:33:38;2.67;;;1.38;;
11596;SDS011;5854;48.072;16.286;2023-04-25T10:38:36;1.27;;;0.80;;
11596;SDS011;5854;48.072;16.286;2023-04-25T10:41:04;1.50;;;1.25;;
11596;SDS011;5854;48.072;16.286;2023-04-25T10:43:34;0.82;;;0.80;;
11596;SDS011;5854;48.072;16.286;2023-04-25T10:48:50;1.58;;;0.90;;
11596;SDS011;5854;48.072;16.286;2023-04-25T10:51:20;1.20;;;1.10;;
11596;SDS011;5854;48.072;16.286;2023-04-25T10:53:58;4.75;;;0.90;;
11596;SDS011;5854;48.072;16.286;2023-04-25T10:56:28;0.85;;;0.85;;
11596;SDS011;5854;48.072;16.286;2023-04-25T10:59:04;1.75;;;0.80;;
11596;SDS011;5854;48.072;16.286;2023-04-25T11:01:38;2.15;;;1.05;;
11596;SDS011;5854;48.072;16.286;2023-04-25T11:04:20;2.08;;;0.95;;
11596;SDS011;5854;48.072;16.286;2023-04-25T11:06:53;1.90;;;0.98;;
11596;SDS011;5854;48.072;16.286;2023-04-25T11:09:29;0.70;;;0.70;;
11596;SDS011;5854;48.072;16.286;2023-04-25T11:11:57;3.38;;;1.35;;
11596;SDS011;5854;48.072;16.286;2023-04-25T11:14:25;3.60;;;1.20;;
11596;SDS011;5854;48.072;16.286;2023-04-25T11:16:52;1.23;;;1.00;;
11596;SDS011;5854;48.072;16.286;2023-04-25T11:19:22;1.48;;;1.38;;
11596;SDS011;5854;48.072;16.286;2023-04-25T11:21:49;2.40;;;1.40;;
11596;SDS011;5854;48.072;16.286;2023-04-25T11:24:17;3.03;;;1.20;;
11596;SDS011;5854;48.072;16.286;2023-04-25T11:26:46;2.42;;;1.20;;
11596;SDS011;5854;48.072;16.286;2023-04-25T11:29:13;1.58;;;1.35;;
11596;SDS011;5854;48.072;16.286;2023-04-25T11:31:42;1.55;;;1.10;;
11596;SDS011;5854;48.072;16.286;2023-04-25T11:34:10;2.15;;;1.10;;
11596;SDS011;5854;48.072;16.286;2023-04-25T11:36:39;1.67;;;1.58;;
11596;SDS011;5854;48.072;16.286;2023-04-25T11:39:06;3.92;;;1.77;;
11596;SDS011;5854;48.072;16.286;2023-04-25T11:41:33;2.22;;;1.70;;
11596;SDS011;5854;48.072;16.286;2023-04-25T11:44:00;2.72;;;1.50;;
11596;SDS011;5854;48.072;16.286;2023-04-25T11:46:28;4.07;;;1.50;;
11596;SDS011;5854;48.072;16.286;2023-04-25T11:48:56;3.25;;;2.20;;
11596;SDS011;5854;48.072;16.286;2023-04-25T11:51:24;3.67;;;1.73;;
11596;SDS011;5854;48.072;16.286;2023-04-25T11:53:52;1.67;;;1.27;;
11596;SDS011;5854;48.072;16.286;2023-04-25T11:56:20;3.05;;;1.50;;
11596;SDS011;5854;48.072;16.286;2023-04-25T11:58:53;2.25;;;1.15;;
11596;SDS011;5854;48.072;16.286;2023-04-25T12:01:29;1.65;;;1.30;;
11596;SDS011;5854;48.072;16.286;2023-04-25T12:06:27;1.35;;;1.00;;
11596;SDS011;5854;48.072;16.286;2023-04-25T12:09:00;1.00;;;0.98;;
11596;SDS011;5854;48.072;16.286;2023-04-25T12:11:29;8.02;;;1.98;;
11596;SDS011;5854;48.072;16.286;2023-04-25T12:14:01;1.27;;;1.17;;
11596;SDS011;5854;48.072;16.286;2023-04-25T12:16:30;2.83;;;0.65;;
11596;SDS011;5854;48.072;16.286;2023-04-25T12:19:08;0.60;;;0.60;;
11596;SDS011;5854;48.072;16.286;2023-04-25T12:21:35;1.58;;;0.82;;
11596;SDS011;5854;48.072;16.286;2023-04-25T12:24:13;0.60;;;0.60;;
11596;SDS011;5854;48.072;16.286;2023-04-25T12:26:50;0.85;;;0.60;;
11596;SDS011;5854;48.072;16.286;2023-04-25T12:29:19;2.05;;;0.95;;
11596;SDS011;5854;48.072;16.286;2023-04-25T12:31:49;0.93;;;0.70;;
11596;SDS011;5854;48.072;16.286;2023-04-25T12:34:17;0.70;;;0.70;;
11596;SDS011;5854;48.072;16.286;2023-04-25T12:36:45;0.95;;;0.65;;
11596;SDS011;5854;48.072;16.286;2023-04-25T12:39:17;0.93;;;0.70;;
11596;SDS011;5854;48.072;16.286;2023-04-25T12:41:46;0.73;;;0.70;;
11596;SDS011;5854;48.072;16.286;2023-04-25T12:44:14;0.75;;;0.65;;
11596;SDS011;5854;48.072;16.286;2023-04-25T12:46:48;0.80;;;0.80;;
11596;SDS011;5854;48.072;16.286;2023-04-25T12:49:15;1.58;;;0.70;;
11596;SDS011;5854;48.072;16.286;2023-04-25T12:51:42;1.42;;;0.68;;
11596;SDS011;5854;48.072;16.286;2023-04-25T12:54:10;1.45;;;0.70;;
11596;SDS011;5854;48.072;16.286;2023-04-25T12:56:41;0.70;;;0.70;;
11596;SDS011;5854;48.072;16.286;2023-04-25T12:59:08;0.80;;;0.70;;
11596;SDS011;5854;48.072;16.286;2023-04-25T13:01:36;0.65;;;0.65;;
11596;SDS011;5854;48.072;16.286;2023-04-25T13:04:03;1.48;;;0.70;;
11596;SDS011;5854;48.072;16.286;2023-04-25T13:06:30;1.58;;;0.65;;
11596;SDS011;5854;48.072;16.286;2023-04-25T13:08:57;1.50;;;0.65;;
11596;SDS011;5854;48.072;16.286;2023-04-25T13:11:25;0.70;;;0.70;;
11596;SDS011;5854;48.072;16.286;2023-04-25T13:13:53;3.60;;;0.90;;
11596;SDS011;5854;48.072;16.286;2023-04-25T13:16:21;1.38;;;1.08;;
11596;SDS011;5854;48.072;16.286;2023-04-25T13:18:48;0.63;;;0.63;;
11596;SDS011;5854;48.072;16.286;2023-04-25T13:21:16;0.60;;;0.50;;
11596;SDS011;5854;48.072;16.286;2023-04-25T13:23:43;1.95;;;0.60;;
11596;SDS011;5854;48.072;16.286;2023-04-25T13:26:11;1.25;;;0.60;;
11596;SDS011;5854;48.072;16.286;2023-04-25T13:28:38;0.70;;;0.70;;
11596;SDS011;5854;48.072;16.286;2023-04-25T13:31:08;0.75;;;0.60;;
11596;SDS011;5854;48.072;16.286;2023-04-25T13:33:35;0.93;;;0.50;;
11596;SDS011;5854;48.072;16.286;2023-04-25T13:36:02;0.40;;;0.40;;
11596;SDS011;5854;48.072;16.286;2023-04-25T13:38:30;0.50;;;0.50;;
11596;SDS011;5854;48.072;16.286;2023-04-25T13:40:59;1.02;;;0.60;;
11596;SDS011;5854;48.072;16.286;2023-04-25T13:43:26;0.70;;;0.60;;
11596;SDS011;5854;48.072;16.286;2023-04-25T13:45:53;2.45;;;0.60;;
11596;SDS011;5854;48.072;16.286;2023-04-25T13:48:23;3.22;;;0.70;;
11596;SDS011;5854;48.072;16.286;2023-04-25T13:51:01;0.55;;;0.55;;
11596;SDS011;5854;48.072;16.286;2023-04-25T13:53:31;0.73;;;0.60;;
11596;SDS011;5854;48.072;16.286;2023-04-25T13:56:01;3.22;;;0.70;;
11596;SDS011;5854;48.072;16.286;2023-04-25T13:58:30;1.95;;;0.80;;
11596;SDS011;5854;48.072;16.286;2023-04-25T14:00:58;1.10;;;0.60;;
11596;SDS011;5854;48.072;16.286;2023-04-25T14:03:27;0.70;;;0.60;;
11596;SDS011;5854;48.072;16.286;2023-04-25T14:05:54;1.25;;;0.80;;
11596;SDS011;5854;48.072;16.286;2023-04-25T14:08:21;0.65;;;0.50;;
11596;SDS011;5854;48.072;16.286;2023-04-25T14:10:48;1.00;;;0.60;;
11596;SDS011;5854;48.072;16.286;2023-04-25T14:13:15;0.50;;;0.50;;
11596;SDS011;5854;48.072;16.286;2023-04-25T14:15:42;1.40;;;0.70;;
11596;SDS011;5854;48.072;16.286;2023-04-25T14:18:10;0.50;;;0.50;;
11596;SDS011;5854;48.072;16.286;2023-04-25T14:20:38;0.60;;;0.50;;
11596;SDS011;5854;48.072;16.286;2023-04-25T14:23:06;1.92;;;0.40;;
11596;SDS011;5854;48.072;16.286;2023-04-25T14:25:33;0.52;;;0.52;;
11596;SDS011;5854;48.072;16.286;2023-04-25T14:28:01;3.03;;;0.52;;
11596;SDS011;5854;48.072;16.286;2023-04-25T14:30:29;0.50;;;0.50;;
11596;SDS011;5854;48.072;16.286;2023-04-25T14:32:56;1.30;;;0.63;;
11596;SDS011;5854;48.072;16.286;2023-04-25T14:35:23;0.50;;;0.43;;
11596;SDS011;5854;48.072;16.286;2023-04-25T14:37:51;0.60;;;0.60;;
11596;SDS011;5854;48.072;16.286;2023-04-25T14:40:20;0.55;;;0.50;;
11596;SDS011;5854;48.072;16.286;2023-04-25T14:42:48;0.82;;;0.60;;
11596;SDS011;5854;48.072;16.286;2023-04-25T14:45:15;0.98;;;0.50;;
11596;SDS011;5854;48.072;16.286;2023-04-25T14:47:42;1.65;;;1.30;;
11596;SDS011;5854;48.072;16.286;2023-04-25T14:50:10;0.93;;;0.50;;
11596;SDS011;5854;48.072;16.286;2023-04-25T14:52:37;2.58;;;0.50;;
11596;SDS011;5854;48.072;16.286;2023-04-25T14:55:06;0.50;;;0.50;;
11596;SDS011;5854;48.072;16.286;2023-04-25T14:57:34;0.50;;;0.50;;
11596;SDS011;5854;48.072;16.286;2023-04-25T15:00:02;0.40;;;0.40;;
11596;SDS011;5854;48.072;16.286;2023-04-25T15:02:33;0.40;;;0.40;;
11596;SDS011;5854;48.072;16.286;2023-04-25T15:05:00;0.45;;;0.45;;